sensor_id;sensor_type;location;lat;lon;timestamp;pressure;altitude;pressure_sealevel;temperature
72054;BMP280;59918;51.280;7.950;2023-02-25T00:01:22;96869.41;;;4.05
72054;BMP280;59918;51.280;7.950;2023-02-25T00:03:51;96865.13;;;4.05
72054;BMP280;59918;51.280;7.950;2023-02-25T00:06:16;96874.50;;;4.05
72054;BMP280;59918;51.280;7.950;2023-02-25T00:08:44;96866.88;;;4.05
72054;BMP280;59918;51.280;7.950;2023-02-25T00:11:11;96866.25;;;4.03
72054;BMP280;59918;51.280;7.950;2023-02-25T00:13:38;96862.75;;;4.04
72054;BMP280;59918;51.280;7.950;2023-02-25T00:16:05;96860.22;;;4.04
72054;BMP280;59918;51.280;7.950;2023-02-25T00:18:31;96861.00;;;4.04
72054;BMP280;59918;51.280;7.950;2023-02-25T00:20:57;96857.50;;;4.05
72054;BMP280;59918;51.280;7.950;2023-02-25T00:23:23;96865.66;;;4.01
72054;BMP280;59918;51.280;7.950;2023-02-25T00:25:48;96859.03;;;4.00
72054;BMP280;59918;51.280;7.950;2023-02-25T00:28:14;96865.66;;;4.01
72054;BMP280;59918;51.280;7.950;2023-02-25T00:30:40;96871.00;;;4.06
72054;BMP280;59918;51.280;7.950;2023-02-25T00:33:05;96870.22;;;4.05
72054;BMP280;59918;51.280;7.950;2023-02-25T00:35:31;96870.41;;;4.04
72054;BMP280;59918;51.280;7.950;2023-02-25T00:37:56;96857.69;;;4.04
72054;BMP280;59918;51.280;7.950;2023-02-25T00:40:22;96856.47;;;4.00
72054;BMP280;59918;51.280;7.950;2023-02-25T00:42:47;96858.41;;;3.98
72054;BMP280;59918;51.280;7.950;2023-02-25T00:45:12;96860.56;;;4.01
72054;BMP280;59918;51.280;7.950;2023-02-25T00:47:37;96858.25;;;3.99
72054;BMP280;59918;51.280;7.950;2023-02-25T00:50:05;96856.06;;;3.97
72054;BMP280;59918;51.280;7.950;2023-02-25T00:52:32;96854.28;;;3.97
72054;BMP280;59918;51.280;7.950;2023-02-25T00:54:57;96858.41;;;3.98
72054;BMP280;59918;51.280;7.950;2023-02-25T00:57:22;96869.03;;;4.01
72054;BMP280;59918;51.280;7.950;2023-02-25T00:59:48;96852.59;;;4.04
72054;BMP280;59918;51.280;7.950;2023-02-25T01:02:13;96856.69;;;4.05
72054;BMP280;59918;51.280;7.950;2023-02-25T01:04:39;96860.03;;;4.05
72054;BMP280;59918;51.280;7.950;2023-02-25T01:07:04;96860.03;;;4.05
72054;BMP280;59918;51.280;7.950;2023-02-25T01:09:29;96856.34;;;4.08
72054;BMP280;59918;51.280;7.950;2023-02-25T01:11:54;96858.50;;;4.11
72054;BMP280;59918;51.280;7.950;2023-02-25T01:14:22;96854.59;;;4.15
72054;BMP280;59918;51.280;7.950;2023-02-25T01:16:51;96849.91;;;4.12
72054;BMP280;59918;51.280;7.950;2023-02-25T01:19:19;96866.72;;;4.13
72054;BMP280;59918;51.280;7.950;2023-02-25T01:21:48;96866.34;;;4.09
72054;BMP280;59918;51.280;7.950;2023-02-25T01:24:16;96863.59;;;4.11
72054;BMP280;59918;51.280;7.950;2023-02-25T01:26:43;96866.13;;;4.11
72054;BMP280;59918;51.280;7.950;2023-02-25T01:29:11;96866.13;;;4.11
72054;BMP280;59918;51.280;7.950;2023-02-25T01:31:36;96864.38;;;4.11
72054;BMP280;59918;51.280;7.950;2023-02-25T01:34:03;96882.97;;;4.12
72054;BMP280;59918;51.280;7.950;2023-02-25T01:36:30;96874.16;;;4.08
72054;BMP280;59918;51.280;7.950;2023-02-25T01:38:55;96872.56;;;4.07
72054;BMP280;59918;51.280;7.950;2023-02-25T01:41:25;96877.66;;;4.07
72054;BMP280;59918;51.280;7.950;2023-02-25T01:46:39;96867.44;;;4.00
72054;BMP280;59918;51.280;7.950;2023-02-25T01:49:18;96872.53;;;4.00
72054;BMP280;59918;51.280;7.950;2023-02-25T01:51:46;96867.59;;;3.99
72054;BMP280;59918;51.280;7.950;2023-02-25T01:54:12;96871.56;;;4.01
72054;BMP280;59918;51.280;7.950;2023-02-25T01:56:41;96871.56;;;4.01
72054;BMP280;59918;51.280;7.950;2023-02-25T01:59:09;96869.97;;;4.00
72054;BMP280;59918;51.280;7.950;2023-02-25T02:01:37;96870.75;;;4.01
72054;BMP280;59918;51.280;7.950;2023-02-25T02:04:05;96880.56;;;4.04
72054;BMP280;59918;51.280;7.950;2023-02-25T02:06:36;96877.84;;;4.05
72054;BMP280;59918;51.280;7.950;2023-02-25T02:09:04;96867.25;;;4.02
72054;BMP280;59918;51.280;7.950;2023-02-25T02:11:31;96869.38;;;3.98
72054;BMP280;59918;51.280;7.950;2023-02-25T02:13:56;96876.03;;;3.99
72054;BMP280;59918;51.280;7.950;2023-02-25T02:16:34;96870.56;;;4.02
72054;BMP280;59918;51.280;7.950;2023-02-25T02:22:32;96864.88;;;4.00
72054;BMP280;59918;51.280;7.950;2023-02-25T02:36:10;96867.59;;;3.99
72054;BMP280;59918;51.280;7.950;2023-02-25T02:41:16;96865.41;;;3.90
72054;BMP280;59918;51.280;7.950;2023-02-25T02:44:09;96865.19;;;3.91
72054;BMP280;59918;51.280;7.950;2023-02-25T02:46:47;96863.47;;;3.92
72054;BMP280;59918;51.280;7.950;2023-02-25T02:51:45;96854.50;;;3.96
72054;BMP280;59918;51.280;7.950;2023-02-25T02:54:12;96857.72;;;3.83
72054;BMP280;59918;51.280;7.950;2023-02-25T02:56:41;96870.44;;;3.83
72054;BMP280;59918;51.280;7.950;2023-02-25T02:59:12;96870.84;;;3.87
72054;BMP280;59918;51.280;7.950;2023-02-25T03:01:50;96868.56;;;3.92
72054;BMP280;59918;51.280;7.950;2023-02-25T03:04:22;96859.94;;;3.93
72054;BMP280;59918;51.280;7.950;2023-02-25T03:06:51;96867.38;;;3.94
72054;BMP280;59918;51.280;7.950;2023-02-25T03:09:22;96866.78;;;3.92
72054;BMP280;59918;51.280;7.950;2023-02-25T03:11:48;96883.00;;;3.91
72054;BMP280;59918;51.280;7.950;2023-02-25T03:14:14;96873.44;;;3.93
72054;BMP280;59918;51.280;7.950;2023-02-25T03:16:56;96877.56;;;3.94
72054;BMP280;59918;51.280;7.950;2023-02-25T03:19:26;96874.41;;;3.92
72054;BMP280;59918;51.280;7.950;2023-02-25T03:22:01;96875.63;;;3.96
72054;BMP280;59918;51.280;7.950;2023-02-25T03:24:35;96879.72;;;3.97
72054;BMP280;59918;51.280;7.950;2023-02-25T03:27:26;96881.88;;;3.94
72054;BMP280;59918;51.280;7.950;2023-02-25T03:29:57;96894.38;;;3.95
72054;BMP280;59918;51.280;7.950;2023-02-25T03:32:27;96891.50;;;3.98
72054;BMP280;59918;51.280;7.950;2023-02-25T03:34:54;96884.03;;;3.97
72054;BMP280;59918;51.280;7.950;2023-02-25T03:37:24;96890.50;;;3.99
72054;BMP280;59918;51.280;7.950;2023-02-25T03:39:55;96879.53;;;3.98
72054;BMP280;59918;51.280;7.950;2023-02-25T03:42:33;96888.16;;;3.98
72054;BMP280;59918;51.280;7.950;2023-02-25T03:45:01;96878.78;;;3.98
72054;BMP280;59918;51.280;7.950;2023-02-25T03:47:29;96879.38;;;4.00
72054;BMP280;59918;51.280;7.950;2023-02-25T03:50:46;96885.06;;;4.02
72054;BMP280;59918;51.280;7.950;2023-02-25T03:52:46;96888.56;;;4.01
72054;BMP280;59918;51.280;7.950;2023-02-25T03:55:13;96883.47;;;4.01
72054;BMP280;59918;51.280;7.950;2023-02-25T03:57:40;96888.38;;;4.02
72054;BMP280;59918;51.280;7.950;2023-02-25T04:00:29;96896.19;;;4.01
72054;BMP280;59918;51.280;7.950;2023-02-25T04:02:54;96897.94;;;4.00
72054;BMP280;59918;51.280;7.950;2023-02-25T04:05:21;96894.81;;;3.98
72054;BMP280;59918;51.280;7.950;2023-02-25T04:07:47;96892.44;;;3.97
72054;BMP280;59918;51.280;7.950;2023-02-25T04:10:14;96907.09;;;3.95
72054;BMP280;59918;51.280;7.950;2023-02-25T04:12:40;96909.25;;;3.92
72054;BMP280;59918;51.280;7.950;2023-02-25T04:15:06;96905.91;;;3.91
72054;BMP280;59918;51.280;7.950;2023-02-25T04:17:33;96909.03;;;3.93
72054;BMP280;59918;51.280;7.950;2023-02-25T04:19:58;96915.72;;;3.94
72054;BMP280;59918;51.280;7.950;2023-02-25T04:22:24;96910.63;;;3.94
72054;BMP280;59918;51.280;7.950;2023-02-25T04:24:49;96909.03;;;3.93
72054;BMP280;59918;51.280;7.950;2023-02-25T04:27:15;96910.03;;;3.92
72054;BMP280;59918;51.280;7.950;2023-02-25T04:29:41;96905.72;;;3.93
72054;BMP280;59918;51.280;7.950;2023-02-25T04:32:06;96915.13;;;3.92
72054;BMP280;59918;51.280;7.950;2023-02-25T04:34:32;96912.56;;;3.92
72054;BMP280;59918;51.280;7.950;2023-02-25T04:36:57;96915.13;;;3.92
72054;BMP280;59918;51.280;7.950;2023-02-25T04:39:22;96921.53;;;3.88
72054;BMP280;59918;51.280;7.950;2023-02-25T04:41:50;96925.63;;;3.89
72054;BMP280;59918;51.280;7.950;2023-02-25T04:44:15;96918.44;;;3.93
72054;BMP280;59918;51.280;7.950;2023-02-25T04:46:41;96915.13;;;3.92
72054;BMP280;59918;51.280;7.950;2023-02-25T04:49:07;96916.66;;;3.93
72054;BMP280;59918;51.280;7.950;2023-02-25T04:51:33;96917.28;;;3.95
72054;BMP280;59918;51.280;7.950;2023-02-25T04:53:58;96908.09;;;3.94
72054;BMP280;59918;51.280;7.950;2023-02-25T04:56:24;96905.16;;;3.97
72054;BMP280;59918;51.280;7.950;2023-02-25T04:58:50;96906.56;;;3.99
72054;BMP280;59918;51.280;7.950;2023-02-25T05:01:15;96910.50;;;4.02
72054;BMP280;59918;51.280;7.950;2023-02-25T05:03:40;96902.69;;;4.03
72054;BMP280;59918;51.280;7.950;2023-02-25T05:06:06;96903.47;;;4.04
72054;BMP280;59918;51.280;7.950;2023-02-25T05:08:32;96902.69;;;4.03
72054;BMP280;59918;51.280;7.950;2023-02-25T05:10:58;96902.09;;;4.01
72054;BMP280;59918;51.280;7.950;2023-02-25T05:13:24;96899.34;;;4.03
72054;BMP280;59918;51.280;7.950;2023-02-25T05:15:54;96910.31;;;4.03
72054;BMP280;59918;51.280;7.950;2023-02-25T05:18:26;96896.00;;;4.02
72054;BMP280;59918;51.280;7.950;2023-02-25T05:20:51;96899.94;;;4.05
72054;BMP280;59918;51.280;7.950;2023-02-25T05:23:17;96903.28;;;4.05
72054;BMP280;59918;51.280;7.950;2023-02-25T05:25:42;96899.16;;;4.04
72054;BMP280;59918;51.280;7.950;2023-02-25T05:28:08;96898.56;;;4.02
72054;BMP280;59918;51.280;7.950;2023-02-25T05:30:33;96906.97;;;4.03
72054;BMP280;59918;51.280;7.950;2023-02-25T05:32:59;96913.22;;;4.00
72054;BMP280;59918;51.280;7.950;2023-02-25T05:35:24;96914.97;;;4.00
72054;BMP280;59918;51.280;7.950;2023-02-25T05:37:49;96921.03;;;3.99
72054;BMP280;59918;51.280;7.950;2023-02-25T05:40:14;96899.47;;;3.95
72054;BMP280;59918;51.280;7.950;2023-02-25T05:42:40;96910.03;;;3.92
72054;BMP280;59918;51.280;7.950;2023-02-25T05:45:06;96916.06;;;3.91
72054;BMP280;59918;51.280;7.950;2023-02-25T05:47:32;96924.69;;;3.90
72054;BMP280;59918;51.280;7.950;2023-02-25T05:49:57;96919.00;;;3.88
72054;BMP280;59918;51.280;7.950;2023-02-25T05:52:22;96909.38;;;3.84
72054;BMP280;59918;51.280;7.950;2023-02-25T05:54:47;96916.19;;;3.83
72054;BMP280;59918;51.280;7.950;2023-02-25T05:57:13;96917.78;;;3.84
72054;BMP280;59918;51.280;7.950;2023-02-25T05:59:38;96921.28;;;3.83
72054;BMP280;59918;51.280;7.950;2023-02-25T06:02:03;96909.97;;;3.86
72054;BMP280;59918;51.280;7.950;2023-02-25T06:04:29;96913.31;;;3.86
72054;BMP280;59918;51.280;7.950;2023-02-25T06:06:54;96920.56;;;3.89
72054;BMP280;59918;51.280;7.950;2023-02-25T06:09:20;96931.16;;;3.93
72054;BMP280;59918;51.280;7.950;2023-02-25T06:11:46;96923.34;;;3.94
72054;BMP280;59918;51.280;7.950;2023-02-25T06:14:12;96926.50;;;3.96
72054;BMP280;59918;51.280;7.950;2023-02-25T06:16:38;96933.13;;;3.97
72054;BMP280;59918;51.280;7.950;2023-02-25T06:19:04;96925.34;;;3.98
72054;BMP280;59918;51.280;7.950;2023-02-25T06:21:29;96937.28;;;3.98
72054;BMP280;59918;51.280;7.950;2023-02-25T06:23:55;96945.50;;;4.00
72054;BMP280;59918;51.280;7.950;2023-02-25T06:26:20;96952.53;;;3.98
72054;BMP280;59918;51.280;7.950;2023-02-25T06:28:45;96950.00;;;3.98
72054;BMP280;59918;51.280;7.950;2023-02-25T06:31:13;96955.69;;;4.00
72054;BMP280;59918;51.280;7.950;2023-02-25T06:33:39;96949.22;;;3.98
72054;BMP280;59918;51.280;7.950;2023-02-25T06:36:05;96964.25;;;3.99
72054;BMP280;59918;51.280;7.950;2023-02-25T06:38:32;96963.31;;;4.00
72054;BMP280;59918;51.280;7.950;2023-02-25T06:40:57;96962.31;;;4.01
72054;BMP280;59918;51.280;7.950;2023-02-25T06:43:23;96969.97;;;4.01
72054;BMP280;59918;51.280;7.950;2023-02-25T06:45:48;96968.00;;;4.03
72054;BMP280;59918;51.280;7.950;2023-02-25T06:48:13;96975.03;;;4.01
72054;BMP280;59918;51.280;7.950;2023-02-25T06:50:39;96969.34;;;3.99
72054;BMP280;59918;51.280;7.950;2023-02-25T06:53:06;96969.97;;;4.01
72054;BMP280;59918;51.280;7.950;2023-02-25T06:55:31;96971.38;;;4.03
72054;BMP280;59918;51.280;7.950;2023-02-25T06:57:56;96973.72;;;4.05
72054;BMP280;59918;51.280;7.950;2023-02-25T07:00:22;96980.38;;;4.06
72054;BMP280;59918;51.280;7.950;2023-02-25T07:02:47;96975.13;;;4.07
72054;BMP280;59918;51.280;7.950;2023-02-25T07:05:13;96983.53;;;4.08
72054;BMP280;59918;51.280;7.950;2023-02-25T07:07:38;96987.28;;;4.12
72054;BMP280;59918;51.280;7.950;2023-02-25T07:10:04;96994.75;;;4.13
72054;BMP280;59918;51.280;7.950;2023-02-25T07:12:32;96996.69;;;4.11
72054;BMP280;59918;51.280;7.950;2023-02-25T07:14:58;96998.41;;;4.11
72054;BMP280;59918;51.280;7.950;2023-02-25T07:17:23;96994.66;;;4.07
72054;BMP280;59918;51.280;7.950;2023-02-25T07:19:49;96996.25;;;4.08
72054;BMP280;59918;51.280;7.950;2023-02-25T07:22:15;96993.34;;;4.11
72054;BMP280;59918;51.280;7.950;2023-02-25T07:24:42;96988.44;;;4.09
72054;BMP280;59918;51.280;7.950;2023-02-25T07:27:10;96997.03;;;4.08
72054;BMP280;59918;51.280;7.950;2023-02-25T07:29:36;97001.78;;;4.11
72054;BMP280;59918;51.280;7.950;2023-02-25T07:32:01;97007.09;;;4.16
72054;BMP280;59918;51.280;7.950;2023-02-25T07:34:26;97010.06;;;4.20
72054;BMP280;59918;51.280;7.950;2023-02-25T07:36:51;97006.31;;;4.16
72054;BMP280;59918;51.280;7.950;2023-02-25T07:39:17;97006.31;;;4.16
72054;BMP280;59918;51.280;7.950;2023-02-25T07:41:42;96999.28;;;4.18
72054;BMP280;59918;51.280;7.950;2023-02-25T07:44:07;97012.00;;;4.18
72054;BMP280;59918;51.280;7.950;2023-02-25T07:46:32;97010.66;;;4.22
72054;BMP280;59918;51.280;7.950;2023-02-25T07:48:58;97013.69;;;4.32
72054;BMP280;59918;51.280;7.950;2023-02-25T07:51:23;97015.84;;;4.34
72054;BMP280;59918;51.280;7.950;2023-02-25T07:53:50;97020.34;;;4.33
72054;BMP280;59918;51.280;7.950;2023-02-25T07:56:18;97026.84;;;4.35
72054;BMP280;59918;51.280;7.950;2023-02-25T07:58:43;97025.06;;;4.35
72054;BMP280;59918;51.280;7.950;2023-02-25T08:01:32;97023.47;;;4.34
72054;BMP280;59918;51.280;7.950;2023-02-25T08:04:00;97030.91;;;4.30
72054;BMP280;59918;51.280;7.950;2023-02-25T08:06:26;97028.91;;;4.25
72054;BMP280;59918;51.280;7.950;2023-02-25T08:08:52;97028.81;;;4.19
72054;BMP280;59918;51.280;7.950;2023-02-25T08:11:18;97027.44;;;4.16
72054;BMP280;59918;51.280;7.950;2023-02-25T08:13:44;97045.69;;;4.20
72054;BMP280;59918;51.280;7.950;2023-02-25T08:16:14;97037.06;;;4.21
72054;BMP280;59918;51.280;7.950;2023-02-25T08:18:40;97050.16;;;4.18
72054;BMP280;59918;51.280;7.950;2023-02-25T08:21:06;97057.03;;;4.17
72054;BMP280;59918;51.280;7.950;2023-02-25T08:23:31;97062.28;;;4.16
72054;BMP280;59918;51.280;7.950;2023-02-25T08:25:57;97063.44;;;4.13
72054;BMP280;59918;51.280;7.950;2023-02-25T08:28:24;97070.25;;;4.13
72054;BMP280;59918;51.280;7.950;2023-02-25T08:30:50;97063.31;;;4.21
72054;BMP280;59918;51.280;7.950;2023-02-25T08:33:16;97066.75;;;4.34
72054;BMP280;59918;51.280;7.950;2023-02-25T08:35:41;97066.75;;;4.55
72054;BMP280;59918;51.280;7.950;2023-02-25T08:38:07;97057.13;;;4.78
72054;BMP280;59918;51.280;7.950;2023-02-25T08:40:32;97071.78;;;5.03
72054;BMP280;59918;51.280;7.950;2023-02-25T08:42:57;97059.41;;;5.27
72054;BMP280;59918;51.280;7.950;2023-02-25T08:45:23;97056.56;;;5.56
72054;BMP280;59918;51.280;7.950;2023-02-25T08:47:48;97053.94;;;5.77
72054;BMP280;59918;51.280;7.950;2023-02-25T08:50:13;97066.94;;;5.88
72054;BMP280;59918;51.280;7.950;2023-02-25T08:52:39;97058.88;;;5.84
72054;BMP280;59918;51.280;7.950;2023-02-25T08:55:04;97069.09;;;5.84
72054;BMP280;59918;51.280;7.950;2023-02-25T08:57:30;97061.63;;;5.83
72054;BMP280;59918;51.280;7.950;2023-02-25T08:59:55;97067.53;;;5.83
72054;BMP280;59918;51.280;7.950;2023-02-25T09:02:21;97074.59;;;5.82
72054;BMP280;59918;51.280;7.950;2023-02-25T09:04:46;97082.00;;;5.77
72054;BMP280;59918;51.280;7.950;2023-02-25T09:07:11;97087.84;;;5.71
72054;BMP280;59918;51.280;7.950;2023-02-25T09:09:37;97088.97;;;5.62
72054;BMP280;59918;51.280;7.950;2023-02-25T09:12:02;97090.13;;;5.53
72054;BMP280;59918;51.280;7.950;2023-02-25T09:14:27;97086.97;;;5.51
72054;BMP280;59918;51.280;7.950;2023-02-25T09:16:52;97092.88;;;5.58
72054;BMP280;59918;51.280;7.950;2023-02-25T09:19:18;97093.81;;;5.84
72054;BMP280;59918;51.280;7.950;2023-02-25T09:21:46;97091.16;;;6.11
72054;BMP280;59918;51.280;7.950;2023-02-25T09:24:11;97085.91;;;6.45
72054;BMP280;59918;51.280;7.950;2023-02-25T09:26:37;97090.44;;;6.75
72054;BMP280;59918;51.280;7.950;2023-02-25T09:29:03;97098.28;;;6.73
72054;BMP280;59918;51.280;7.950;2023-02-25T09:31:29;97100.28;;;6.58
72054;BMP280;59918;51.280;7.950;2023-02-25T09:33:55;97111.25;;;6.46
72054;BMP280;59918;51.280;7.950;2023-02-25T09:36:21;97110.28;;;6.41
72054;BMP280;59918;51.280;7.950;2023-02-25T09:38:47;97109.28;;;6.35
72054;BMP280;59918;51.280;7.950;2023-02-25T09:43:41;97100.25;;;6.39
72054;BMP280;59918;51.280;7.950;2023-02-25T09:46:12;97107.53;;;6.42
72054;BMP280;59918;51.280;7.950;2023-02-25T09:48:46;97104.56;;;6.52
72054;BMP280;59918;51.280;7.950;2023-02-25T09:51:22;97108.13;;;6.57
72054;BMP280;59918;51.280;7.950;2023-02-25T09:54:48;97109.69;;;6.39
72054;BMP280;59918;51.280;7.950;2023-02-25T09:57:06;97119.41;;;6.10
72054;BMP280;59918;51.280;7.950;2023-02-25T09:59:31;97121.31;;;5.88
72054;BMP280;59918;51.280;7.950;2023-02-25T10:02:15;97122.66;;;5.84
72054;BMP280;59918;51.280;7.950;2023-02-25T10:07:33;97126.31;;;6.16
72054;BMP280;59918;51.280;7.950;2023-02-25T10:10:22;97124.44;;;6.56
72054;BMP280;59918;51.280;7.950;2023-02-25T10:18:36;97099.41;;;10.78
72054;BMP280;59918;51.280;7.950;2023-02-25T10:23:56;97120.88;;;9.79
72054;BMP280;59918;51.280;7.950;2023-02-25T10:26:30;97110.22;;;9.40
72054;BMP280;59918;51.280;7.950;2023-02-25T10:28:59;97126.25;;;9.35
72054;BMP280;59918;51.280;7.950;2023-02-25T10:31:28;97117.34;;;8.96
72054;BMP280;59918;51.280;7.950;2023-02-25T10:33:54;97121.78;;;8.58
72054;BMP280;59918;51.280;7.950;2023-02-25T10:36:30;97123.38;;;8.22
72054;BMP280;59918;51.280;7.950;2023-02-25T10:38:55;97128.63;;;7.84
72054;BMP280;59918;51.280;7.950;2023-02-25T10:41:22;97134.22;;;7.55
72054;BMP280;59918;51.280;7.950;2023-02-25T10:43:49;97125.00;;;7.22
72054;BMP280;59918;51.280;7.950;2023-02-25T10:46:19;97136.06;;;6.97
72054;BMP280;59918;51.280;7.950;2023-02-25T10:48:55;97143.31;;;6.81
72054;BMP280;59918;51.280;7.950;2023-02-25T10:51:21;97147.03;;;6.65
72054;BMP280;59918;51.280;7.950;2023-02-25T10:56:21;97145.19;;;6.34
72054;BMP280;59918;51.280;7.950;2023-02-25T10:59:37;97147.22;;;6.45
72054;BMP280;59918;51.280;7.950;2023-02-25T11:01:55;97142.31;;;6.75
72054;BMP280;59918;51.280;7.950;2023-02-25T11:04:27;97151.38;;;6.84
72054;BMP280;59918;51.280;7.950;2023-02-25T11:06:52;97155.69;;;6.71
72054;BMP280;59918;51.280;7.950;2023-02-25T11:14:29;97183.81;;;5.72
72054;BMP280;59918;51.280;7.950;2023-02-25T11:17:06;97196.78;;;5.43
72054;BMP280;59918;51.280;7.950;2023-02-25T11:19:37;97195.47;;;5.26
72054;BMP280;59918;51.280;7.950;2023-02-25T11:22:21;97209.50;;;5.16
72054;BMP280;59918;51.280;7.950;2023-02-25T11:25:02;97208.13;;;5.13
72054;BMP280;59918;51.280;7.950;2023-02-25T11:27:40;97212.19;;;5.08
72054;BMP280;59918;51.280;7.950;2023-02-25T11:30:07;97216.13;;;5.10
72054;BMP280;59918;51.280;7.950;2023-02-25T11:32:46;97219.00;;;5.28
72054;BMP280;59918;51.280;7.950;2023-02-25T11:35:18;97207.88;;;5.63
72054;BMP280;59918;51.280;7.950;2023-02-25T11:37:44;97209.78;;;6.15
72054;BMP280;59918;51.280;7.950;2023-02-25T11:40:43;97204.59;;;6.55
72054;BMP280;59918;51.280;7.950;2023-02-25T11:43:16;97202.13;;;7.45
72054;BMP280;59918;51.280;7.950;2023-02-25T11:45:52;97189.44;;;8.81
72054;BMP280;59918;51.280;7.950;2023-02-25T11:51:24;97190.88;;;8.71
72054;BMP280;59918;51.280;7.950;2023-02-25T11:56:37;97198.91;;;7.88
72054;BMP280;59918;51.280;7.950;2023-02-25T12:07:54;97211.97;;;7.28
72054;BMP280;59918;51.280;7.950;2023-02-25T12:21:24;97212.69;;;7.93
72054;BMP280;59918;51.280;7.950;2023-02-25T12:24:20;97216.16;;;8.61
72054;BMP280;59918;51.280;7.950;2023-02-25T12:37:26;97232.19;;;8.50
72054;BMP280;59918;51.280;7.950;2023-02-25T12:46:51;97200.88;;;16.54
72054;BMP280;59918;51.280;7.950;2023-02-25T12:49:47;97182.63;;;18.51
72054;BMP280;59918;51.280;7.950;2023-02-25T12:52:25;97206.50;;;16.36
72054;BMP280;59918;51.280;7.950;2023-02-25T12:58:18;97222.53;;;12.29
72054;BMP280;59918;51.280;7.950;2023-02-25T13:00:56;97231.41;;;11.01
72054;BMP280;59918;51.280;7.950;2023-02-25T13:06:27;97215.28;;;14.70
72054;BMP280;59918;51.280;7.950;2023-02-25T13:31:08;97234.78;;;14.35
72054;BMP280;59918;51.280;7.950;2023-02-25T13:34:08;97229.03;;;16.26
72054;BMP280;59918;51.280;7.950;2023-02-25T13:48:15;97207.53;;;23.25
72054;BMP280;59918;51.280;7.950;2023-02-25T13:58:49;97210.47;;;23.67
72054;BMP280;59918;51.280;7.950;2023-02-25T14:12:46;97251.88;;;14.36
72054;BMP280;59918;51.280;7.950;2023-02-25T14:15:23;97256.94;;;13.12
72054;BMP280;59918;51.280;7.950;2023-02-25T14:18:10;97268.63;;;12.64
72054;BMP280;59918;51.280;7.950;2023-02-25T14:45:35;97232.81;;;26.47
72054;BMP280;59918;51.280;7.950;2023-02-25T14:48:13;97245.06;;;24.59
72054;BMP280;59918;51.280;7.950;2023-02-25T14:50:50;97269.53;;;21.10
72054;BMP280;59918;51.280;7.950;2023-02-25T14:53:34;97283.06;;;19.25
72054;BMP280;59918;51.280;7.950;2023-02-25T15:04:37;97247.13;;;27.44
72054;BMP280;59918;51.280;7.950;2023-02-25T15:07:16;97254.88;;;27.20
72054;BMP280;59918;51.280;7.950;2023-02-25T15:20:38;97294.75;;;21.01
72054;BMP280;59918;51.280;7.950;2023-02-25T15:23:11;97283.50;;;21.92
72054;BMP280;59918;51.280;7.950;2023-02-25T15:33:45;97286.72;;;23.48
72054;BMP280;59918;51.280;7.950;2023-02-25T15:54:10;97310.28;;;23.27
72054;BMP280;59918;51.280;7.950;2023-02-25T15:57:03;97311.78;;;23.54
72054;BMP280;59918;51.280;7.950;2023-02-25T15:59:44;97313.81;;;23.09
72054;BMP280;59918;51.280;7.950;2023-02-25T16:04:52;97353.69;;;18.01
72054;BMP280;59918;51.280;7.950;2023-02-25T16:07:20;97359.16;;;15.56
72054;BMP280;59918;51.280;7.950;2023-02-25T16:09:52;97382.09;;;13.65
72054;BMP280;59918;51.280;7.950;2023-02-25T16:12:18;97378.22;;;12.16
72054;BMP280;59918;51.280;7.950;2023-02-25T16:14:44;97395.66;;;11.04
72054;BMP280;59918;51.280;7.950;2023-02-25T16:17:39;97403.44;;;10.20
72054;BMP280;59918;51.280;7.950;2023-02-25T16:20:27;97413.47;;;9.30
72054;BMP280;59918;51.280;7.950;2023-02-25T16:22:56;97413.91;;;8.65
72054;BMP280;59918;51.280;7.950;2023-02-25T16:28:25;97426.09;;;7.60
72054;BMP280;59918;51.280;7.950;2023-02-25T16:31:04;97434.22;;;7.11
72054;BMP280;59918;51.280;7.950;2023-02-25T16:33:44;97427.53;;;6.76
72054;BMP280;59918;51.280;7.950;2023-02-25T16:39:03;97447.72;;;6.11
72054;BMP280;59918;51.280;7.950;2023-02-25T16:41:30;97452.00;;;5.83
72054;BMP280;59918;51.280;7.950;2023-02-25T16:43:55;97455.47;;;5.61
72054;BMP280;59918;51.280;7.950;2023-02-25T16:46:27;97458.84;;;5.47
72054;BMP280;59918;51.280;7.950;2023-02-25T16:48:56;97464.09;;;5.25
72054;BMP280;59918;51.280;7.950;2023-02-25T16:51:25;97471.97;;;5.09
72054;BMP280;59918;51.280;7.950;2023-02-25T16:53:58;97467.22;;;4.92
72054;BMP280;59918;51.280;7.950;2023-02-25T16:56:27;97481.47;;;4.72
72054;BMP280;59918;51.280;7.950;2023-02-25T17:01:34;97486.69;;;4.42
72054;BMP280;59918;51.280;7.950;2023-02-25T17:04:10;97487.09;;;4.32
72054;BMP280;59918;51.280;7.950;2023-02-25T17:06:37;97493.28;;;4.15
72054;BMP280;59918;51.280;7.950;2023-02-25T17:09:03;97494.66;;;4.03
72054;BMP280;59918;51.280;7.950;2023-02-25T17:11:31;97490.59;;;3.94
72054;BMP280;59918;51.280;7.950;2023-02-25T17:13:57;97499.59;;;3.82
72054;BMP280;59918;51.280;7.950;2023-02-25T17:16:28;97490.41;;;3.73
72054;BMP280;59918;51.280;7.950;2023-02-25T17:18:56;97500.97;;;3.63
72054;BMP280;59918;51.280;7.950;2023-02-25T17:21:40;97513.75;;;3.55
72054;BMP280;59918;51.280;7.950;2023-02-25T17:24:11;97517.00;;;3.41
72054;BMP280;59918;51.280;7.950;2023-02-25T17:26:40;97520.97;;;3.35
72054;BMP280;59918;51.280;7.950;2023-02-25T17:29:10;97522.44;;;3.30
72054;BMP280;59918;51.280;7.950;2023-02-25T17:31:44;97533.09;;;3.26
72054;BMP280;59918;51.280;7.950;2023-02-25T17:34:24;97526.28;;;3.18
72054;BMP280;59918;51.280;7.950;2023-02-25T17:36:50;97526.31;;;3.10
72054;BMP280;59918;51.280;7.950;2023-02-25T17:39:19;97540.94;;;3.08
72054;BMP280;59918;51.280;7.950;2023-02-25T17:41:45;97541.88;;;3.07
72054;BMP280;59918;51.280;7.950;2023-02-25T17:44:12;97548.84;;;3.13
72054;BMP280;59918;51.280;7.950;2023-02-25T17:46:56;97549.00;;;3.20
72054;BMP280;59918;51.280;7.950;2023-02-25T17:49:28;97557.53;;;3.26
72054;BMP280;59918;51.280;7.950;2023-02-25T17:52:01;97558.19;;;3.21
72054;BMP280;59918;51.280;7.950;2023-02-25T17:54:28;97563.81;;;3.08
72054;BMP280;59918;51.280;7.950;2023-02-25T17:56:59;97568.41;;;3.05
72054;BMP280;59918;51.280;7.950;2023-02-25T18:02:00;97572.09;;;2.94
72054;BMP280;59918;51.280;7.950;2023-02-25T18:04:33;97571.16;;;2.88
72054;BMP280;59918;51.280;7.950;2023-02-25T18:09:46;97581.03;;;2.75
72054;BMP280;59918;51.280;7.950;2023-02-25T18:12:24;97581.81;;;2.67
72054;BMP280;59918;51.280;7.950;2023-02-25T18:14:54;97585.97;;;2.60
72054;BMP280;59918;51.280;7.950;2023-02-25T18:17:24;97592.31;;;2.56
72054;BMP280;59918;51.280;7.950;2023-02-25T18:19:50;97598.19;;;2.49
72054;BMP280;59918;51.280;7.950;2023-02-25T18:22:45;97600.72;;;2.41
72054;BMP280;59918;51.280;7.950;2023-02-25T18:25:33;97607.38;;;2.42
72054;BMP280;59918;51.280;7.950;2023-02-25T18:27:58;97613.41;;;2.41